sensor_id;sensor_type;location;lat;lon;timestamp;P1;durP1;ratioP1;P2;durP2;ratioP2
16612;SDS011;8419;52.358;9.752;2023-01-04T00:02:16;4.12;;;1.35;;
16612;SDS011;8419;52.358;9.752;2023-01-04T00:05:02;3.45;;;1.50;;
16612;SDS011;8419;52.358;9.752;2023-01-04T00:07:47;2.47;;;1.30;;
16612;SDS011;8419;52.358;9.752;2023-01-04T00:10:32;2.20;;;1.20;;
16612;SDS011;8419;52.358;9.752;2023-01-04T00:13:18;5.07;;;1.62;;
16612;SDS011;8419;52.358;9.752;2023-01-04T00:16:04;3.28;;;1.30;;
16612;SDS011;8419;52.358;9.752;2023-01-04T00:18:54;4.22;;;1.37;;
16612;SDS011;8419;52.358;9.752;2023-01-04T00:21:41;4.82;;;1.50;;
16612;SDS011;8419;52.358;9.752;2023-01-04T00:24:26;2.55;;;1.45;;
16612;SDS011;8419;52.358;9.752;2023-01-04T00:27:12;5.00;;;1.17;;
16612;SDS011;8419;52.358;9.752;2023-01-04T00:29:57;3.17;;;1.27;;
16612;SDS011;8419;52.358;9.752;2023-01-04T00:32:43;2.92;;;1.60;;
16612;SDS011;8419;52.358;9.752;2023-01-04T00:35:28;2.65;;;1.20;;
16612;SDS011;8419;52.358;9.752;2023-01-04T00:38:14;4.07;;;1.42;;
16612;SDS011;8419;52.358;9.752;2023-01-04T00:40:59;1.85;;;1.33;;
16612;SDS011;8419;52.358;9.752;2023-01-04T00:43:46;1.52;;;0.93;;
16612;SDS011;8419;52.358;9.752;2023-01-04T00:46:32;5.25;;;1.40;;
16612;SDS011;8419;52.358;9.752;2023-01-04T00:49:18;2.85;;;1.52;;
16612;SDS011;8419;52.358;9.752;2023-01-04T00:52:03;3.60;;;1.30;;
16612;SDS011;8419;52.358;9.752;2023-01-04T00:54:50;2.60;;;1.15;;
16612;SDS011;8419;52.358;9.752;2023-01-04T00:57:35;4.45;;;2.28;;
16612;SDS011;8419;52.358;9.752;2023-01-04T01:00:21;3.08;;;1.55;;
16612;SDS011;8419;52.358;9.752;2023-01-04T01:03:07;5.80;;;1.30;;
16612;SDS011;8419;52.358;9.752;2023-01-04T01:05:52;2.72;;;1.30;;
16612;SDS011;8419;52.358;9.752;2023-01-04T01:08:38;4.60;;;1.35;;
16612;SDS011;8419;52.358;9.752;2023-01-04T01:11:23;2.55;;;1.37;;
16612;SDS011;8419;52.358;9.752;2023-01-04T01:14:11;1.60;;;1.50;;
16612;SDS011;8419;52.358;9.752;2023-01-04T01:17:00;2.67;;;1.42;;
16612;SDS011;8419;52.358;9.752;2023-01-04T01:19:45;2.90;;;1.70;;
16612;SDS011;8419;52.358;9.752;2023-01-04T01:22:31;2.33;;;1.48;;
16612;SDS011;8419;52.358;9.752;2023-01-04T01:25:18;3.70;;;1.80;;
16612;SDS011;8419;52.358;9.752;2023-01-04T01:28:04;3.55;;;1.20;;
16612;SDS011;8419;52.358;9.752;2023-01-04T01:30:50;6.60;;;1.27;;
16612;SDS011;8419;52.358;9.752;2023-01-04T01:33:35;2.72;;;1.40;;
16612;SDS011;8419;52.358;9.752;2023-01-04T01:36:21;1.85;;;1.25;;
16612;SDS011;8419;52.358;9.752;2023-01-04T01:39:08;3.58;;;1.80;;
16612;SDS011;8419;52.358;9.752;2023-01-04T01:41:54;4.18;;;1.35;;
16612;SDS011;8419;52.358;9.752;2023-01-04T01:44:51;4.00;;;1.37;;
16612;SDS011;8419;52.358;9.752;2023-01-04T01:47:43;2.95;;;1.45;;
16612;SDS011;8419;52.358;9.752;2023-01-04T01:50:33;3.37;;;1.10;;
16612;SDS011;8419;52.358;9.752;2023-01-04T01:53:22;3.40;;;1.42;;
16612;SDS011;8419;52.358;9.752;2023-01-04T01:56:10;2.33;;;1.20;;
16612;SDS011;8419;52.358;9.752;2023-01-04T01:58:59;3.37;;;1.37;;
16612;SDS011;8419;52.358;9.752;2023-01-04T02:01:46;2.05;;;1.25;;
16612;SDS011;8419;52.358;9.752;2023-01-04T02:04:31;2.12;;;1.17;;
16612;SDS011;8419;52.358;9.752;2023-01-04T02:07:20;5.00;;;1.55;;
16612;SDS011;8419;52.358;9.752;2023-01-04T02:10:08;1.25;;;1.10;;
16612;SDS011;8419;52.358;9.752;2023-01-04T02:12:55;3.83;;;1.52;;
16612;SDS011;8419;52.358;9.752;2023-01-04T02:15:48;3.87;;;1.52;;
16612;SDS011;8419;52.358;9.752;2023-01-04T02:18:42;2.92;;;1.02;;
16612;SDS011;8419;52.358;9.752;2023-01-04T02:21:35;1.20;;;1.00;;
16612;SDS011;8419;52.358;9.752;2023-01-04T02:24:46;2.97;;;1.15;;
16612;SDS011;8419;52.358;9.752;2023-01-04T02:27:45;2.72;;;1.02;;
16612;SDS011;8419;52.358;9.752;2023-01-04T02:33:59;2.92;;;1.08;;
16612;SDS011;8419;52.358;9.752;2023-01-04T02:36:54;3.35;;;1.50;;
16612;SDS011;8419;52.358;9.752;2023-01-04T02:39:45;4.10;;;1.60;;
16612;SDS011;8419;52.358;9.752;2023-01-04T02:42:38;4.90;;;1.25;;
16612;SDS011;8419;52.358;9.752;2023-01-04T02:45:47;1.27;;;1.17;;
16612;SDS011;8419;52.358;9.752;2023-01-04T02:48:38;1.98;;;1.27;;
16612;SDS011;8419;52.358;9.752;2023-01-04T02:51:43;2.87;;;1.40;;
16612;SDS011;8419;52.358;9.752;2023-01-04T02:54:28;4.00;;;1.40;;
16612;SDS011;8419;52.358;9.752;2023-01-04T02:57:20;1.30;;;1.00;;
16612;SDS011;8419;52.358;9.752;2023-01-04T03:03:46;3.08;;;1.35;;
16612;SDS011;8419;52.358;9.752;2023-01-04T03:06:59;3.03;;;1.23;;
16612;SDS011;8419;52.358;9.752;2023-01-04T03:09:53;2.10;;;1.45;;
16612;SDS011;8419;52.358;9.752;2023-01-04T03:12:46;2.75;;;1.27;;
16612;SDS011;8419;52.358;9.752;2023-01-04T03:15:36;2.20;;;1.12;;
16612;SDS011;8419;52.358;9.752;2023-01-04T03:18:25;2.85;;;1.30;;
16612;SDS011;8419;52.358;9.752;2023-01-04T03:21:12;2.45;;;1.20;;
16612;SDS011;8419;52.358;9.752;2023-01-04T03:24:02;2.62;;;1.30;;
16612;SDS011;8419;52.358;9.752;2023-01-04T03:27:08;3.25;;;1.00;;
16612;SDS011;8419;52.358;9.752;2023-01-04T03:30:13;2.33;;;1.50;;
16612;SDS011;8419;52.358;9.752;2023-01-04T03:33:21;2.70;;;1.30;;
16612;SDS011;8419;52.358;9.752;2023-01-04T03:36:28;2.33;;;1.37;;
16612;SDS011;8419;52.358;9.752;2023-01-04T03:39:25;3.30;;;1.30;;
16612;SDS011;8419;52.358;9.752;2023-01-04T03:42:43;2.92;;;1.20;;
16612;SDS011;8419;52.358;9.752;2023-01-04T03:45:52;2.47;;;1.00;;
16612;SDS011;8419;52.358;9.752;2023-01-04T03:49:01;3.35;;;1.23;;
16612;SDS011;8419;52.358;9.752;2023-01-04T03:51:56;3.28;;;1.17;;
16612;SDS011;8419;52.358;9.752;2023-01-04T03:54:45;3.40;;;1.10;;
16612;SDS011;8419;52.358;9.752;2023-01-04T03:57:33;2.87;;;1.25;;
16612;SDS011;8419;52.358;9.752;2023-01-04T04:00:20;2.25;;;1.40;;
16612;SDS011;8419;52.358;9.752;2023-01-04T04:03:07;3.12;;;1.30;;
16612;SDS011;8419;52.358;9.752;2023-01-04T04:05:54;2.70;;;0.95;;
16612;SDS011;8419;52.358;9.752;2023-01-04T04:08:58;1.95;;;1.30;;
16612;SDS011;8419;52.358;9.752;2023-01-04T04:11:44;4.43;;;1.50;;
16612;SDS011;8419;52.358;9.752;2023-01-04T04:14:29;1.40;;;1.12;;
16612;SDS011;8419;52.358;9.752;2023-01-04T04:17:15;3.28;;;1.42;;
16612;SDS011;8419;52.358;9.752;2023-01-04T04:20:02;2.83;;;1.35;;
16612;SDS011;8419;52.358;9.752;2023-01-04T04:22:48;3.95;;;1.42;;
16612;SDS011;8419;52.358;9.752;2023-01-04T04:25:34;3.25;;;1.12;;
16612;SDS011;8419;52.358;9.752;2023-01-04T04:28:19;1.20;;;1.05;;
16612;SDS011;8419;52.358;9.752;2023-01-04T04:31:06;2.95;;;1.30;;
16612;SDS011;8419;52.358;9.752;2023-01-04T04:33:51;3.53;;;1.25;;
16612;SDS011;8419;52.358;9.752;2023-01-04T04:36:37;2.17;;;1.20;;
16612;SDS011;8419;52.358;9.752;2023-01-04T04:39:23;4.50;;;1.58;;
16612;SDS011;8419;52.358;9.752;2023-01-04T04:42:08;2.05;;;1.35;;
16612;SDS011;8419;52.358;9.752;2023-01-04T04:44:54;1.02;;;0.85;;
16612;SDS011;8419;52.358;9.752;2023-01-04T04:47:39;3.00;;;1.20;;
16612;SDS011;8419;52.358;9.752;2023-01-04T04:50:25;5.12;;;1.05;;
16612;SDS011;8419;52.358;9.752;2023-01-04T04:53:11;1.50;;;1.02;;
16612;SDS011;8419;52.358;9.752;2023-01-04T04:55:56;3.72;;;1.15;;
16612;SDS011;8419;52.358;9.752;2023-01-04T04:58:42;2.55;;;1.10;;
16612;SDS011;8419;52.358;9.752;2023-01-04T05:01:27;3.30;;;1.27;;
16612;SDS011;8419;52.358;9.752;2023-01-04T05:04:13;2.83;;;1.55;;
16612;SDS011;8419;52.358;9.752;2023-01-04T05:07:02;1.50;;;1.00;;
16612;SDS011;8419;52.358;9.752;2023-01-04T05:09:48;4.20;;;1.30;;
16612;SDS011;8419;52.358;9.752;2023-01-04T05:12:33;1.33;;;1.15;;
16612;SDS011;8419;52.358;9.752;2023-01-04T05:15:38;2.65;;;1.10;;
16612;SDS011;8419;52.358;9.752;2023-01-04T05:18:24;2.10;;;1.42;;
16612;SDS011;8419;52.358;9.752;2023-01-04T05:21:09;2.33;;;0.88;;
16612;SDS011;8419;52.358;9.752;2023-01-04T05:23:55;2.95;;;1.10;;
16612;SDS011;8419;52.358;9.752;2023-01-04T05:26:41;4.53;;;1.45;;
16612;SDS011;8419;52.358;9.752;2023-01-04T05:29:26;1.67;;;1.10;;
16612;SDS011;8419;52.358;9.752;2023-01-04T05:32:30;1.30;;;0.90;;
16612;SDS011;8419;52.358;9.752;2023-01-04T05:35:15;2.70;;;1.37;;
16612;SDS011;8419;52.358;9.752;2023-01-04T05:38:01;2.33;;;1.10;;
16612;SDS011;8419;52.358;9.752;2023-01-04T05:40:47;2.30;;;1.30;;
16612;SDS011;8419;52.358;9.752;2023-01-04T05:43:33;2.95;;;1.27;;
16612;SDS011;8419;52.358;9.752;2023-01-04T05:46:19;2.08;;;1.02;;
16612;SDS011;8419;52.358;9.752;2023-01-04T05:49:04;1.80;;;1.20;;
16612;SDS011;8419;52.358;9.752;2023-01-04T05:51:49;1.62;;;0.77;;
16612;SDS011;8419;52.358;9.752;2023-01-04T05:54:35;2.72;;;1.62;;
16612;SDS011;8419;52.358;9.752;2023-01-04T05:57:21;1.80;;;1.15;;
16612;SDS011;8419;52.358;9.752;2023-01-04T06:00:08;3.15;;;1.10;;
16612;SDS011;8419;52.358;9.752;2023-01-04T06:02:55;1.52;;;1.00;;
16612;SDS011;8419;52.358;9.752;2023-01-04T06:05:40;2.22;;;0.90;;
16612;SDS011;8419;52.358;9.752;2023-01-04T06:08:26;1.02;;;0.95;;
16612;SDS011;8419;52.358;9.752;2023-01-04T06:11:11;0.90;;;0.70;;
16612;SDS011;8419;52.358;9.752;2023-01-04T06:13:57;1.40;;;1.20;;
16612;SDS011;8419;52.358;9.752;2023-01-04T06:16:42;2.03;;;1.30;;
16612;SDS011;8419;52.358;9.752;2023-01-04T06:19:27;3.70;;;1.20;;
16612;SDS011;8419;52.358;9.752;2023-01-04T06:22:13;1.55;;;1.00;;
16612;SDS011;8419;52.358;9.752;2023-01-04T06:25:00;1.20;;;0.75;;
16612;SDS011;8419;52.358;9.752;2023-01-04T06:27:45;0.73;;;0.62;;
16612;SDS011;8419;52.358;9.752;2023-01-04T06:30:31;1.85;;;1.23;;
16612;SDS011;8419;52.358;9.752;2023-01-04T06:33:16;0.90;;;0.70;;
16612;SDS011;8419;52.358;9.752;2023-01-04T06:36:03;1.30;;;0.82;;
16612;SDS011;8419;52.358;9.752;2023-01-04T06:38:50;1.25;;;0.57;;
16612;SDS011;8419;52.358;9.752;2023-01-04T06:41:35;1.55;;;0.90;;
16612;SDS011;8419;52.358;9.752;2023-01-04T06:44:22;1.08;;;0.68;;
16612;SDS011;8419;52.358;9.752;2023-01-04T06:47:07;2.00;;;0.52;;
16612;SDS011;8419;52.358;9.752;2023-01-04T06:49:52;1.10;;;1.00;;
16612;SDS011;8419;52.358;9.752;2023-01-04T06:52:38;1.20;;;1.02;;
16612;SDS011;8419;52.358;9.752;2023-01-04T06:55:24;1.27;;;0.85;;
16612;SDS011;8419;52.358;9.752;2023-01-04T06:58:09;0.68;;;0.68;;
16612;SDS011;8419;52.358;9.752;2023-01-04T07:00:55;1.65;;;0.85;;
16612;SDS011;8419;52.358;9.752;2023-01-04T07:03:41;0.65;;;0.57;;
16612;SDS011;8419;52.358;9.752;2023-01-04T07:06:26;1.42;;;0.88;;
16612;SDS011;8419;52.358;9.752;2023-01-04T07:09:11;1.00;;;0.80;;
16612;SDS011;8419;52.358;9.752;2023-01-04T07:11:58;0.52;;;0.47;;
16612;SDS011;8419;52.358;9.752;2023-01-04T07:14:43;3.78;;;1.08;;
16612;SDS011;8419;52.358;9.752;2023-01-04T07:17:29;2.35;;;0.80;;
16612;SDS011;8419;52.358;9.752;2023-01-04T07:20:14;3.55;;;1.00;;
16612;SDS011;8419;52.358;9.752;2023-01-04T07:23:01;2.08;;;0.80;;
16612;SDS011;8419;52.358;9.752;2023-01-04T07:25:46;0.98;;;0.80;;
16612;SDS011;8419;52.358;9.752;2023-01-04T07:28:31;0.90;;;0.90;;
16612;SDS011;8419;52.358;9.752;2023-01-04T07:31:35;1.12;;;0.80;;
16612;SDS011;8419;52.358;9.752;2023-01-04T07:34:21;0.82;;;0.68;;
16612;SDS011;8419;52.358;9.752;2023-01-04T07:37:08;0.98;;;0.75;;
16612;SDS011;8419;52.358;9.752;2023-01-04T07:39:55;1.30;;;0.90;;
16612;SDS011;8419;52.358;9.752;2023-01-04T07:42:40;0.77;;;0.68;;
16612;SDS011;8419;52.358;9.752;2023-01-04T07:45:25;1.20;;;0.47;;
16612;SDS011;8419;52.358;9.752;2023-01-04T07:48:11;1.20;;;1.00;;
16612;SDS011;8419;52.358;9.752;2023-01-04T07:50:57;3.47;;;1.02;;
16612;SDS011;8419;52.358;9.752;2023-01-04T07:53:43;1.15;;;0.98;;
16612;SDS011;8419;52.358;9.752;2023-01-04T07:56:28;0.90;;;0.77;;
16612;SDS011;8419;52.358;9.752;2023-01-04T07:59:15;2.37;;;0.82;;
16612;SDS011;8419;52.358;9.752;2023-01-04T08:02:02;0.65;;;0.60;;
16612;SDS011;8419;52.358;9.752;2023-01-04T08:04:47;2.40;;;1.12;;
16612;SDS011;8419;52.358;9.752;2023-01-04T08:07:34;1.00;;;0.70;;
16612;SDS011;8419;52.358;9.752;2023-01-04T08:10:20;0.93;;;0.65;;
16612;SDS011;8419;52.358;9.752;2023-01-04T08:13:05;1.45;;;0.98;;
16612;SDS011;8419;52.358;9.752;2023-01-04T08:15:51;0.82;;;0.80;;
16612;SDS011;8419;52.358;9.752;2023-01-04T08:18:37;1.05;;;0.95;;
16612;SDS011;8419;52.358;9.752;2023-01-04T08:21:22;0.60;;;0.60;;
16612;SDS011;8419;52.358;9.752;2023-01-04T08:24:09;2.15;;;1.17;;
16612;SDS011;8419;52.358;9.752;2023-01-04T08:26:55;1.33;;;0.85;;
16612;SDS011;8419;52.358;9.752;2023-01-04T08:29:41;0.70;;;0.70;;
16612;SDS011;8419;52.358;9.752;2023-01-04T08:32:26;1.25;;;0.80;;
16612;SDS011;8419;52.358;9.752;2023-01-04T08:35:12;2.20;;;0.68;;
16612;SDS011;8419;52.358;9.752;2023-01-04T08:37:57;1.02;;;0.93;;
16612;SDS011;8419;52.358;9.752;2023-01-04T08:40:43;0.70;;;0.70;;
16612;SDS011;8419;52.358;9.752;2023-01-04T08:43:28;1.65;;;0.68;;
16612;SDS011;8419;52.358;9.752;2023-01-04T08:46:14;1.08;;;0.70;;
16612;SDS011;8419;52.358;9.752;2023-01-04T08:49:00;0.43;;;0.43;;
16612;SDS011;8419;52.358;9.752;2023-01-04T08:51:45;1.77;;;1.00;;
16612;SDS011;8419;52.358;9.752;2023-01-04T08:54:31;0.80;;;0.80;;
16612;SDS011;8419;52.358;9.752;2023-01-04T08:57:17;0.90;;;0.77;;
16612;SDS011;8419;52.358;9.752;2023-01-04T09:00:03;0.75;;;0.50;;
16612;SDS011;8419;52.358;9.752;2023-01-04T09:02:51;0.70;;;0.70;;
16612;SDS011;8419;52.358;9.752;2023-01-04T09:05:37;1.67;;;0.85;;
16612;SDS011;8419;52.358;9.752;2023-01-04T09:08:23;0.65;;;0.60;;
16612;SDS011;8419;52.358;9.752;2023-01-04T09:11:10;0.10;;;0.10;;
16612;SDS011;8419;52.358;9.752;2023-01-04T09:13:58;1.08;;;0.85;;
16612;SDS011;8419;52.358;9.752;2023-01-04T09:16:44;1.50;;;0.90;;
16612;SDS011;8419;52.358;9.752;2023-01-04T09:19:30;2.37;;;0.80;;
16612;SDS011;8419;52.358;9.752;2023-01-04T09:22:16;0.70;;;0.70;;
16612;SDS011;8419;52.358;9.752;2023-01-04T09:25:01;0.95;;;0.55;;
16612;SDS011;8419;52.358;9.752;2023-01-04T09:27:47;0.82;;;0.50;;
16612;SDS011;8419;52.358;9.752;2023-01-04T09:30:33;0.88;;;0.50;;
16612;SDS011;8419;52.358;9.752;2023-01-04T09:33:19;1.25;;;0.50;;
16612;SDS011;8419;52.358;9.752;2023-01-04T09:36:06;0.50;;;0.50;;
16612;SDS011;8419;52.358;9.752;2023-01-04T09:38:54;0.80;;;0.50;;
16612;SDS011;8419;52.358;9.752;2023-01-04T09:41:44;0.52;;;0.52;;
16612;SDS011;8419;52.358;9.752;2023-01-04T09:44:37;0.50;;;0.50;;
16612;SDS011;8419;52.358;9.752;2023-01-04T09:47:31;0.80;;;0.55;;
16612;SDS011;8419;52.358;9.752;2023-01-04T09:50:23;0.88;;;0.50;;
16612;SDS011;8419;52.358;9.752;2023-01-04T09:53:14;0.77;;;0.62;;
16612;SDS011;8419;52.358;9.752;2023-01-04T09:56:07;0.73;;;0.30;;
16612;SDS011;8419;52.358;9.752;2023-01-04T09:59:01;1.45;;;0.62;;
16612;SDS011;8419;52.358;9.752;2023-01-04T10:01:51;0.90;;;0.55;;
16612;SDS011;8419;52.358;9.752;2023-01-04T10:04:40;0.55;;;0.43;;
16612;SDS011;8419;52.358;9.752;2023-01-04T10:07:30;0.82;;;0.60;;
16612;SDS011;8419;52.358;9.752;2023-01-04T10:10:17;0.37;;;0.37;;
16612;SDS011;8419;52.358;9.752;2023-01-04T10:13:13;0.75;;;0.52;;
16612;SDS011;8419;52.358;9.752;2023-01-04T10:16:14;1.15;;;0.55;;
16612;SDS011;8419;52.358;9.752;2023-01-04T10:19:08;1.17;;;0.40;;
16612;SDS011;8419;52.358;9.752;2023-01-04T10:22:02;0.30;;;0.30;;
16612;SDS011;8419;52.358;9.752;2023-01-04T10:24:55;1.15;;;0.60;;
16612;SDS011;8419;52.358;9.752;2023-01-04T10:27:53;0.45;;;0.30;;
16612;SDS011;8419;52.358;9.752;2023-01-04T10:30:51;0.35;;;0.30;;
16612;SDS011;8419;52.358;9.752;2023-01-04T10:33:45;1.45;;;0.30;;
16612;SDS011;8419;52.358;9.752;2023-01-04T10:36:33;0.60;;;0.40;;
16612;SDS011;8419;52.358;9.752;2023-01-04T10:39:20;0.40;;;0.40;;
16612;SDS011;8419;52.358;9.752;2023-01-04T10:42:12;0.10;;;0.10;;
16612;SDS011;8419;52.358;9.752;2023-01-04T10:45:09;0.22;;;0.22;;
16612;SDS011;8419;52.358;9.752;2023-01-04T10:48:01;0.20;;;0.20;;
16612;SDS011;8419;52.358;9.752;2023-01-04T10:50:53;0.37;;;0.37;;
16612;SDS011;8419;52.358;9.752;2023-01-04T10:53:42;0.30;;;0.30;;
16612;SDS011;8419;52.358;9.752;2023-01-04T10:56:32;0.43;;;0.40;;
16612;SDS011;8419;52.358;9.752;2023-01-04T10:59:25;0.28;;;0.20;;
16612;SDS011;8419;52.358;9.752;2023-01-04T11:02:19;0.62;;;0.50;;
16612;SDS011;8419;52.358;9.752;2023-01-04T11:05:10;0.40;;;0.25;;
16612;SDS011;8419;52.358;9.752;2023-01-04T11:08:07;1.65;;;0.43;;
16612;SDS011;8419;52.358;9.752;2023-01-04T11:10:58;0.25;;;0.22;;
16612;SDS011;8419;52.358;9.752;2023-01-04T11:13:48;1.75;;;0.40;;
16612;SDS011;8419;52.358;9.752;2023-01-04T11:16:34;0.82;;;0.52;;
16612;SDS011;8419;52.358;9.752;2023-01-04T11:19:20;0.10;;;0.10;;
16612;SDS011;8419;52.358;9.752;2023-01-04T11:22:10;0.22;;;0.22;;
16612;SDS011;8419;52.358;9.752;2023-01-04T11:25:00;0.45;;;0.30;;
16612;SDS011;8419;52.358;9.752;2023-01-04T11:27:50;0.20;;;0.20;;
16612;SDS011;8419;52.358;9.752;2023-01-04T11:30:50;0.60;;;0.25;;
16612;SDS011;8419;52.358;9.752;2023-01-04T11:33:53;0.30;;;0.30;;
16612;SDS011;8419;52.358;9.752;2023-01-04T11:36:40;0.45;;;0.40;;
16612;SDS011;8419;52.358;9.752;2023-01-04T11:39:26;0.37;;;0.35;;
16612;SDS011;8419;52.358;9.752;2023-01-04T11:42:16;0.10;;;0.10;;
16612;SDS011;8419;52.358;9.752;2023-01-04T11:45:05;0.35;;;0.20;;
16612;SDS011;8419;52.358;9.752;2023-01-04T11:48:00;0.13;;;0.13;;
16612;SDS011;8419;52.358;9.752;2023-01-04T11:50:49;0.75;;;0.25;;
16612;SDS011;8419;52.358;9.752;2023-01-04T11:53:39;0.60;;;0.32;;
16612;SDS011;8419;52.358;9.752;2023-01-04T11:56:25;0.20;;;0.20;;
16612;SDS011;8419;52.358;9.752;2023-01-04T11:59:13;0.40;;;0.37;;
16612;SDS011;8419;52.358;9.752;2023-01-04T12:02:19;0.30;;;0.30;;
16612;SDS011;8419;52.358;9.752;2023-01-04T12:05:09;0.10;;;0.10;;
16612;SDS011;8419;52.358;9.752;2023-01-04T12:08:01;0.47;;;0.30;;
16612;SDS011;8419;52.358;9.752;2023-01-04T12:10:47;0.10;;;0.10;;
16612;SDS011;8419;52.358;9.752;2023-01-04T12:13:33;0.10;;;0.10;;
16612;SDS011;8419;52.358;9.752;2023-01-04T12:16:23;0.65;;;0.20;;
16612;SDS011;8419;52.358;9.752;2023-01-04T12:19:17;0.20;;;0.20;;
16612;SDS011;8419;52.358;9.752;2023-01-04T12:22:04;0.20;;;0.20;;
16612;SDS011;8419;52.358;9.752;2023-01-04T12:25:06;0.32;;;0.20;;
16612;SDS011;8419;52.358;9.752;2023-01-04T12:31:42;0.13;;;0.13;;
16612;SDS011;8419;52.358;9.752;2023-01-04T12:34:38;0.20;;;0.20;;
16612;SDS011;8419;52.358;9.752;2023-01-04T12:37:43;0.10;;;0.10;;
16612;SDS011;8419;52.358;9.752;2023-01-04T12:40:51;0.13;;;0.13;;
16612;SDS011;8419;52.358;9.752;2023-01-04T12:43:38;0.15;;;0.15;;
16612;SDS011;8419;52.358;9.752;2023-01-04T12:46:37;1.55;;;0.40;;
16612;SDS011;8419;52.358;9.752;2023-01-04T12:49:47;0.20;;;0.20;;
16612;SDS011;8419;52.358;9.752;2023-01-04T12:55:51;0.55;;;0.55;;
16612;SDS011;8419;52.358;9.752;2023-01-04T13:02:11;0.10;;;0.10;;
16612;SDS011;8419;52.358;9.752;2023-01-04T13:05:00;0.20;;;0.20;;
16612;SDS011;8419;52.358;9.752;2023-01-04T13:07:48;0.20;;;0.20;;
16612;SDS011;8419;52.358;9.752;2023-01-04T13:10:36;0.45;;;0.30;;
16612;SDS011;8419;52.358;9.752;2023-01-04T13:13:27;0.25;;;0.22;;
16612;SDS011;8419;52.358;9.752;2023-01-04T13:16:22;0.37;;;0.30;;
16612;SDS011;8419;52.358;9.752;2023-01-04T13:19:17;0.20;;;0.20;;
16612;SDS011;8419;52.358;9.752;2023-01-04T13:22:08;0.35;;;0.35;;
16612;SDS011;8419;52.358;9.752;2023-01-04T13:25:00;0.30;;;0.30;;
16612;SDS011;8419;52.358;9.752;2023-01-04T13:27:54;0.13;;;0.13;;
16612;SDS011;8419;52.358;9.752;2023-01-04T13:30:41;1.35;;;0.30;;
16612;SDS011;8419;52.358;9.752;2023-01-04T13:33:27;0.25;;;0.25;;
16612;SDS011;8419;52.358;9.752;2023-01-04T13:36:12;0.50;;;0.35;;
16612;SDS011;8419;52.358;9.752;2023-01-04T13:38:59;1.67;;;0.40;;
16612;SDS011;8419;52.358;9.752;2023-01-04T13:41:44;0.22;;;0.22;;
16612;SDS011;8419;52.358;9.752;2023-01-04T13:44:53;0.43;;;0.30;;
16612;SDS011;8419;52.358;9.752;2023-01-04T13:47:55;0.22;;;0.20;;
16612;SDS011;8419;52.358;9.752;2023-01-04T13:50:44;0.20;;;0.20;;
16612;SDS011;8419;52.358;9.752;2023-01-04T13:53:51;0.20;;;0.20;;
16612;SDS011;8419;52.358;9.752;2023-01-04T13:56:37;0.30;;;0.30;;
16612;SDS011;8419;52.358;9.752;2023-01-04T13:59:29;0.37;;;0.20;;
16612;SDS011;8419;52.358;9.752;2023-01-04T14:02:16;0.80;;;0.40;;
16612;SDS011;8419;52.358;9.752;2023-01-04T14:05:04;0.37;;;0.30;;
16612;SDS011;8419;52.358;9.752;2023-01-04T14:07:58;0.45;;;0.20;;
16612;SDS011;8419;52.358;9.752;2023-01-04T14:10:44;0.43;;;0.43;;
16612;SDS011;8419;52.358;9.752;2023-01-04T14:13:31;0.25;;;0.25;;
16612;SDS011;8419;52.358;9.752;2023-01-04T14:16:16;0.50;;;0.30;;
16612;SDS011;8419;52.358;9.752;2023-01-04T14:22:25;0.50;;;0.40;;
16612;SDS011;8419;52.358;9.752;2023-01-04T14:25:43;0.30;;;0.30;;
16612;SDS011;8419;52.358;9.752;2023-01-04T14:28:38;0.68;;;0.40;;
16612;SDS011;8419;52.358;9.752;2023-01-04T14:31:34;0.50;;;0.50;;
16612;SDS011;8419;52.358;9.752;2023-01-04T14:34:20;0.40;;;0.40;;
16612;SDS011;8419;52.358;9.752;2023-01-04T14:37:07;0.43;;;0.43;;
16612;SDS011;8419;52.358;9.752;2023-01-04T14:39:54;0.75;;;0.50;;
16612;SDS011;8419;52.358;9.752;2023-01-04T14:42:40;0.70;;;0.70;;
16612;SDS011;8419;52.358;9.752;2023-01-04T14:45:25;0.70;;;0.68;;
16612;SDS011;8419;52.358;9.752;2023-01-04T14:48:11;0.30;;;0.30;;
16612;SDS011;8419;52.358;9.752;2023-01-04T14:50:56;0.47;;;0.40;;
16612;SDS011;8419;52.358;9.752;2023-01-04T14:53:43;0.65;;;0.57;;
16612;SDS011;8419;52.358;9.752;2023-01-04T14:56:29;0.45;;;0.45;;
16612;SDS011;8419;52.358;9.752;2023-01-04T14:59:15;0.60;;;0.60;;
16612;SDS011;8419;52.358;9.752;2023-01-04T15:02:00;1.45;;;0.73;;
16612;SDS011;8419;52.358;9.752;2023-01-04T15:04:45;0.47;;;0.47;;
16612;SDS011;8419;52.358;9.752;2023-01-04T15:07:32;1.55;;;1.05;;
16612;SDS011;8419;52.358;9.752;2023-01-04T15:10:22;1.05;;;1.00;;
16612;SDS011;8419;52.358;9.752;2023-01-04T15:13:09;2.35;;;1.12;;
16612;SDS011;8419;52.358;9.752;2023-01-04T15:15:55;1.42;;;0.93;;
16612;SDS011;8419;52.358;9.752;2023-01-04T15:18:41;0.80;;;0.80;;
16612;SDS011;8419;52.358;9.752;2023-01-04T15:21:29;1.77;;;0.82;;
16612;SDS011;8419;52.358;9.752;2023-01-04T15:24:17;1.42;;;0.80;;
16612;SDS011;8419;52.358;9.752;2023-01-04T15:27:02;1.00;;;0.95;;
16612;SDS011;8419;52.358;9.752;2023-01-04T15:29:47;3.47;;;0.95;;
16612;SDS011;8419;52.358;9.752;2023-01-04T15:32:33;0.70;;;0.70;;
16612;SDS011;8419;52.358;9.752;2023-01-04T15:35:20;0.60;;;0.60;;
16612;SDS011;8419;52.358;9.752;2023-01-04T15:38:05;2.75;;;1.48;;
16612;SDS011;8419;52.358;9.752;2023-01-04T15:40:51;5.70;;;1.10;;
16612;SDS011;8419;52.358;9.752;2023-01-04T15:43:44;2.55;;;1.00;;
16612;SDS011;8419;52.358;9.752;2023-01-04T15:46:29;2.17;;;1.50;;
16612;SDS011;8419;52.358;9.752;2023-01-04T15:49:15;3.80;;;1.23;;
16612;SDS011;8419;52.358;9.752;2023-01-04T15:52:00;2.12;;;1.12;;
16612;SDS011;8419;52.358;9.752;2023-01-04T15:54:46;2.62;;;0.98;;
16612;SDS011;8419;52.358;9.752;2023-01-04T15:57:31;0.73;;;0.73;;
16612;SDS011;8419;52.358;9.752;2023-01-04T16:00:16;1.90;;;1.25;;
16612;SDS011;8419;52.358;9.752;2023-01-04T16:03:02;1.00;;;0.85;;
16612;SDS011;8419;52.358;9.752;2023-01-04T16:05:48;4.87;;;2.00;;
16612;SDS011;8419;52.358;9.752;2023-01-04T16:08:37;3.10;;;1.30;;
16612;SDS011;8419;52.358;9.752;2023-01-04T16:11:22;2.55;;;1.20;;
16612;SDS011;8419;52.358;9.752;2023-01-04T16:14:08;2.45;;;1.12;;
16612;SDS011;8419;52.358;9.752;2023-01-04T16:16:53;5.90;;;1.45;;
16612;SDS011;8419;52.358;9.752;2023-01-04T16:19:39;0.73;;;0.68;;
16612;SDS011;8419;52.358;9.752;2023-01-04T16:22:25;1.98;;;0.80;;
16612;SDS011;8419;52.358;9.752;2023-01-04T16:25:10;0.80;;;0.80;;
16612;SDS011;8419;52.358;9.752;2023-01-04T16:27:56;1.95;;;1.08;;
16612;SDS011;8419;52.358;9.752;2023-01-04T16:30:42;3.30;;;1.25;;
16612;SDS011;8419;52.358;9.752;2023-01-04T16:33:27;1.15;;;0.90;;
16612;SDS011;8419;52.358;9.752;2023-01-04T16:36:13;1.58;;;0.70;;
16612;SDS011;8419;52.358;9.752;2023-01-04T16:39:00;6.05;;;1.60;;
16612;SDS011;8419;52.358;9.752;2023-01-04T16:41:45;3.03;;;0.75;;
16612;SDS011;8419;52.358;9.752;2023-01-04T16:44:33;0.73;;;0.68;;
16612;SDS011;8419;52.358;9.752;2023-01-04T16:47:18;2.37;;;0.98;;
16612;SDS011;8419;52.358;9.752;2023-01-04T16:50:04;4.47;;;1.02;;
16612;SDS011;8419;52.358;9.752;2023-01-04T16:52:50;1.30;;;0.70;;
16612;SDS011;8419;52.358;9.752;2023-01-04T16:55:35;2.12;;;0.62;;
16612;SDS011;8419;52.358;9.752;2023-01-04T16:58:21;2.08;;;1.23;;
16612;SDS011;8419;52.358;9.752;2023-01-04T17:01:07;1.67;;;0.82;;
16612;SDS011;8419;52.358;9.752;2023-01-04T17:03:55;3.30;;;1.20;;
16612;SDS011;8419;52.358;9.752;2023-01-04T17:06:43;1.62;;;1.05;;
16612;SDS011;8419;52.358;9.752;2023-01-04T17:09:29;2.40;;;1.27;;
16612;SDS011;8419;52.358;9.752;2023-01-04T17:12:15;0.98;;;0.50;;
16612;SDS011;8419;52.358;9.752;2023-01-04T17:15:00;2.20;;;0.80;;
16612;SDS011;8419;52.358;9.752;2023-01-04T17:17:45;1.40;;;1.20;;
16612;SDS011;8419;52.358;9.752;2023-01-04T17:20:30;2.15;;;0.60;;
16612;SDS011;8419;52.358;9.752;2023-01-04T17:23:16;3.42;;;1.30;;
16612;SDS011;8419;52.358;9.752;2023-01-04T17:26:03;3.47;;;1.15;;
16612;SDS011;8419;52.358;9.752;2023-01-04T17:28:52;1.37;;;1.02;;
16612;SDS011;8419;52.358;9.752;2023-01-04T17:31:39;0.70;;;0.70;;
16612;SDS011;8419;52.358;9.752;2023-01-04T17:34:26;1.42;;;0.93;;